Time;durP1;ratioP1;P1;durP2;ratioP2;P2;SDS_P1;SDS_P2;PMS_P1;PMS_P2;Temp;Humidity;BMP_temperature;BMP_pressure;BME280_temperature;BME280_humidity;BME280_pressure;Samples;Min_cycle;Max_cycle;Signal;HPM_P1;HPM_P2
2022/08/16 00:00:12;;;;;;;9.70;5.90;;;;;;;21.58;85.65;100462.06;5112949;28;20048;-59
2022/08/16 00:02:49;;;;;;;9.60;5.78;;;;;;;21.51;86.99;100475.28;5116811;28;20055;-59
2022/08/16 00:05:21;;;;;;;9.73;5.72;;;;;;;21.47;87.09;100474.00;5115073;28;20047;-51
2022/08/16 00:07:50;;;;;;;8.65;5.75;;;;;;;21.39;87.46;100474.91;5116418;28;20356;-58
2022/08/16 00:10:27;;;;;;;9.98;5.97;;;;;;;21.34;87.72;100482.66;5116378;28;20044;-50
2022/08/16 00:12:56;;;;;;;10.13;6.30;;;;;;;21.28;88.44;100478.84;5116629;28;20047;-59
2022/08/16 00:15:30;;;;;;;11.25;6.75;;;;;;;21.28;88.46;100481.53;5116592;28;20040;-54
2022/08/16 00:18:19;;;;;;;10.77;6.10;;;;;;;21.31;88.10;100472.31;5116435;28;20535;-51
2022/08/16 00:20:58;;;;;;;7.88;5.82;;;;;;;21.29;88.74;100485.00;5116305;28;20122;-59
2022/08/16 00:23:27;;;;;;;10.18;6.70;;;;;;;21.24;88.55;100479.38;5116249;28;20039;-59
2022/08/16 00:26:07;;;;;;;10.13;6.85;;;;;;;21.17;88.92;100479.25;5114818;28;20043;-52
2022/08/16 00:28:56;;;;;;;11.52;7.00;;;;;;;21.14;89.16;100476.13;5115969;28;20108;-60
2022/08/16 00:31:26;;;;;;;12.50;6.63;;;;;;;20.99;88.89;100478.72;5116123;28;20123;-59
2022/08/16 00:34:14;;;;;;;13.43;7.03;;;;;;;20.96;89.58;100479.09;5116190;28;20040;-59
2022/08/16 00:36:47;;;;;;;12.23;6.88;;;;;;;20.90;89.44;100480.59;5116131;28;20051;-54
2022/08/16 00:39:22;;;;;;;10.18;6.90;;;;;;;20.80;90.07;100480.81;5115810;28;20067;-52
2022/08/16 00:41:51;;;;;;;9.13;6.60;;;;;;;20.81;90.08;100479.00;5116126;28;20046;-52
2022/08/16 00:44:21;;;;;;;11.50;6.80;;;;;;;20.76;90.92;100477.69;5115898;28;20127;-53
2022/08/16 00:47:05;;;;;;;11.52;7.00;;;;;;;20.71;91.73;100473.84;5115840;28;20055;-53
2022/08/16 00:49:35;;;;;;;10.70;6.47;;;;;;;20.72;91.39;100473.72;5115538;28;20129;-60
2022/08/16 00:52:12;;;;;;;10.80;6.75;;;;;;;20.73;91.95;100475.34;5115625;28;20115;-59
2022/08/16 00:54:57;;;;;;;9.07;6.68;;;;;;;20.67;92.08;100470.69;5115456;28;20529;-59
2022/08/16 00:57:27;;;;;;;8.63;6.35;;;;;;;20.62;92.68;100473.06;5116865;28;20051;-58
2022/08/16 01:00:18;;;;;;;11.25;7.07;;;;;;;20.58;92.20;100471.75;5116967;28;20043;-52
2022/08/16 01:02:52;;;;;;;9.88;6.43;;;;;;;20.61;92.13;100476.72;5116407;28;20047;-52
2022/08/16 01:05:20;;;;;;;10.43;7.05;;;;;;;20.58;91.42;100482.41;5116288;28;20047;-59
2022/08/16 01:07:54;;;;;;;11.15;7.13;;;;;;;20.53;91.78;100477.63;5116188;28;20498;-59
2022/08/16 01:10:23;;;;;;;10.65;6.63;;;;;;;20.46;92.82;100478.47;5115563;28;20047;-57
2022/08/16 01:13:05;;;;;;;12.25;7.60;;;;;;;20.46;92.17;100478.47;5115366;28;20055;-53
2022/08/16 01:15:35;;;;;;;11.75;7.65;;;;;;;20.42;92.39;100478.84;5115644;28;20043;-58
2022/08/16 01:18:13;;;;;;;11.95;7.00;;;;;;;20.31;93.42;100479.19;5114007;28;20082;-53
2022/08/16 01:21:21;;;;;;;10.82;7.85;;;;;;;20.32;93.75;100472.84;5114930;28;20397;-58
2022/08/16 01:24:03;;;;;;;12.98;7.63;;;;;;;20.25;93.88;100467.38;5114942;28;20046;-60
2022/08/16 01:26:55;;;;;;;10.82;7.20;;;;;;;20.27;94.01;100467.19;5114888;28;20413;-52
2022/08/16 01:29:36;;;;;;;10.93;6.95;;;;;;;20.18;94.46;100476.22;5114975;28;20051;-51
2022/08/16 01:32:25;;;;;;;11.57;7.32;;;;;;;20.15;94.84;100474.75;5115049;28;20093;-58
2022/08/16 01:35:01;;;;;;;10.02;6.90;;;;;;;20.16;94.86;100472.91;5114911;28;20525;-50
2022/08/16 01:37:37;;;;;;;12.65;7.60;;;;;;;20.12;95.23;100472.41;5114802;28;20039;-59
2022/08/16 01:40:08;;;;;;;9.98;7.38;;;;;;;20.06;95.11;100476.59;5114379;28;20680;-59
2022/08/16 01:42:37;;;;;;;11.93;9.48;;;;;;;19.97;95.72;100480.28;5114361;28;20054;-59
2022/08/16 01:45:15;;;;;;;11.80;9.13;;;;;;;19.83;96.50;100481.00;5114212;28;20052;-54
2022/08/16 01:47:49;;;;;;;13.98;9.73;;;;;;;19.75;97.17;100471.97;5114455;28;20047;-52
2022/08/16 01:50:21;;;;;;;13.47;9.43;;;;;;;19.71;97.03;100465.28;5112761;28;20051;-59
2022/08/16 01:53:10;;;;;;;13.38;10.23;;;;;;;19.71;97.60;100470.63;5113151;28;20051;-59
2022/08/16 01:55:41;;;;;;;13.45;9.63;;;;;;;19.70;97.77;100465.47;5114304;28;20122;-59
2022/08/16 01:58:23;;;;;;;14.23;10.43;;;;;;;19.72;97.61;100464.31;5115037;28;20054;-58
2022/08/16 02:00:51;;;;;;;12.48;9.60;;;;;;;19.66;97.79;100473.00;5114283;28;20043;-52
2022/08/16 02:03:21;;;;;;;14.52;8.98;;;;;;;19.73;97.68;100473.16;5114392;28;20449;-54
2022/08/16 02:05:51;;;;;;;11.70;9.23;;;;;;;19.70;97.79;100474.31;5114556;28;20040;-60
2022/08/16 02:08:19;;;;;;;11.77;9.30;;;;;;;19.62;97.67;100470.81;5114535;28;20082;-59
2022/08/16 02:11:05;;;;;;;12.35;8.73;;;;;;;19.65;97.61;100471.31;5113894;28;20455;-58
2022/08/16 02:13:34;;;;;;;14.07;10.65;;;;;;;19.58;97.72;100481.00;5114111;28;20058;-59
2022/08/16 02:16:10;;;;;;;14.00;9.88;;;;;;;19.52;98.33;100477.16;5114083;28;20146;-54
2022/08/16 02:18:46;;;;;;;13.63;10.57;;;;;;;19.49;98.26;100476.66;5113756;28;20420;-59
2022/08/16 02:21:15;;;;;;;13.90;10.60;;;;;;;19.42;99.08;100473.84;5113834;28;20044;-59
2022/08/16 02:23:43;;;;;;;12.80;10.43;;;;;;;19.42;99.08;100472.00;5113112;28;20070;-53
2022/08/16 02:26:15;;;;;;;12.25;10.05;;;;;;;19.35;99.91;100475.50;5113823;28;20127;-52
2022/08/16 02:28:46;;;;;;;12.63;9.48;;;;;;;19.40;99.45;100471.34;5113830;28;20052;-58
2022/08/16 02:31:19;;;;;;;13.68;9.70;;;;;;;19.48;99.67;100469.66;5112353;28;20056;-59
2022/08/16 02:34:09;;;;;;;12.00;9.88;;;;;;;19.40;99.36;100466.00;5113759;28;20051;-53
2022/08/16 02:36:40;;;;;;;14.70;10.43;;;;;;;19.36;99.45;100467.34;5113604;28;20505;-51
2022/08/16 02:39:18;;;;;;;13.43;9.63;;;;;;;19.32;99.68;100460.69;5113598;28;20532;-58
2022/08/16 02:41:52;;;;;;;12.77;9.80;;;;;;;19.35;99.63;100465.66;5113610;28;20071;-52
2022/08/16 02:44:21;;;;;;;12.65;10.02;;;;;;;19.26;100.00;100466.66;5113302;28;20051;-53
2022/08/16 02:46:53;;;;;;;12.52;9.82;;;;;;;19.29;100.00;100455.66;5113877;28;20375;-51
2022/08/16 02:49:23;;;;;;;12.25;10.25;;;;;;;19.30;100.00;100456.50;5113581;28;20048;-59
2022/08/16 02:52:12;;;;;;;14.90;10.35;;;;;;;19.20;100.00;100465.50;5113230;28;20089;-52
2022/08/16 02:54:52;;;;;;;13.82;10.70;;;;;;;19.17;100.00;100462.31;5113572;28;20093;-51
2022/08/16 02:57:23;;;;;;;14.43;10.77;;;;;;;19.15;100.00;100459.00;5113374;28;20032;-58
2022/08/16 02:59:52;;;;;;;13.85;10.20;;;;;;;19.17;100.00;100463.16;5113668;28;20149;-58
2022/08/16 03:02:20;;;;;;;13.50;10.13;;;;;;;19.21;100.00;100459.16;5112996;28;20048;-54
2022/08/16 03:04:59;;;;;;;13.88;10.65;;;;;;;19.16;100.00;100458.00;5113610;28;20118;-58
2022/08/16 03:07:28;;;;;;;14.80;11.50;;;;;;;19.17;100.00;100464.97;5113581;28;20036;-55
2022/08/16 03:10:05;;;;;;;13.15;10.38;;;;;;;19.14;100.00;100460.00;5113293;28;20093;-53
2022/08/16 03:12:35;;;;;;;13.57;10.25;;;;;;;19.12;100.00;100457.50;5112582;28;20054;-55
2022/08/16 03:15:22;;;;;;;14.43;10.88;;;;;;;19.11;100.00;100461.16;5113144;28;20035;-55
2022/08/16 03:17:52;;;;;;;14.60;10.85;;;;;;;18.99;100.00;100455.31;5113183;28;20040;-59
2022/08/16 03:20:21;;;;;;;13.13;10.98;;;;;;;19.07;100.00;100458.00;5112792;28;20054;-53
2022/08/16 03:22:59;;;;;;;15.00;11.52;;;;;;;19.02;100.00;100460.31;5113018;28;20048;-59
2022/08/16 03:25:29;;;;;;;13.15;11.07;;;;;;;18.95;100.00;100453.13;5112799;28;20395;-59
2022/08/16 03:28:13;;;;;;;15.52;11.20;;;;;;;18.91;100.00;100453.47;5112687;28;20071;-52
2022/08/16 03:30:44;;;;;;;14.00;12.10;;;;;;;18.78;100.00;100446.94;5112811;28;20071;-48
2022/08/16 03:33:14;;;;;;;15.55;12.02;;;;;;;18.78;100.00;100455.75;5111562;28;20036;-59
2022/08/16 03:35:43;;;;;;;15.00;11.45;;;;;;;18.72;100.00;100457.22;5112359;28;20044;-53
2022/08/16 03:38:15;;;;;;;16.67;12.20;;;;;;;18.83;100.00;100460.56;5112850;28;20040;-51
2022/08/16 03:41:02;;;;;;;14.82;11.73;;;;;;;18.85;100.00;100459.41;5112888;28;20055;-52
2022/08/16 03:43:42;;;;;;;15.05;11.85;;;;;;;18.81;100.00;100459.91;5112513;28;20506;-58
2022/08/16 03:46:21;;;;;;;14.90;12.07;;;;;;;18.79;100.00;100460.06;5112509;28;20047;-52
2022/08/16 03:49:10;;;;;;;15.43;12.70;;;;;;;18.64;100.00;100462.53;5112538;28;20437;-58
2022/08/16 03:51:40;;;;;;;15.00;11.95;;;;;;;18.67;100.00;100454.22;5112745;28;20569;-59
2022/08/16 03:54:09;;;;;;;16.02;12.07;;;;;;;18.71;100.00;100458.22;5112455;28;20555;-59
2022/08/16 03:56:40;;;;;;;13.88;11.80;;;;;;;18.63;100.00;100450.22;5112097;28;20048;-59
2022/08/16 03:59:26;;;;;;;19.45;12.77;;;;;;;18.63;100.00;100460.03;5112768;28;20362;-59
2022/08/16 04:01:57;;;;;;;14.98;12.20;;;;;;;18.58;100.00;100456.03;5112569;28;20056;-53
2022/08/16 04:04:25;;;;;;;14.63;11.38;;;;;;;18.53;100.00;100470.84;5112730;28;20059;-50
2022/08/16 04:07:01;;;;;;;15.25;12.10;;;;;;;18.46;100.00;100469.78;5112462;28;20096;-58
2022/08/16 04:09:31;;;;;;;14.68;11.30;;;;;;;18.39;100.00;100469.59;5112742;28;20487;-58
2022/08/16 04:12:05;;;;;;;14.55;12.18;;;;;;;18.40;100.00;100472.09;5111114;28;20101;-50
2022/08/16 04:14:54;;;;;;;15.98;11.90;;;;;;;18.46;100.00;100483.94;5112473;28;20176;-53
2022/08/16 04:17:25;;;;;;;16.85;12.85;;;;;;;18.40;100.00;100482.72;5111010;28;20044;-59
2022/08/16 04:19:54;;;;;;;14.63;11.80;;;;;;;18.38;100.00;100487.41;5112548;28;20056;-59
2022/08/16 04:22:27;;;;;;;16.90;12.15;;;;;;;18.32;100.00;100497.84;5112291;28;20056;-58
2022/08/16 04:24:55;;;;;;;16.95;13.00;;;;;;;18.35;100.00;100486.88;5112413;28;20490;-58
2022/08/16 04:27:26;;;;;;;16.15;13.02;;;;;;;18.28;100.00;100494.66;5112619;28;20512;-51
2022/08/16 04:30:00;;;;;;;17.23;14.37;;;;;;;18.22;100.00;100500.63;5112647;28;20083;-55
2022/08/16 04:32:30;;;;;;;20.77;14.10;;;;;;;18.19;100.00;100511.59;5112419;28;20138;-52
2022/08/16 04:34:59;;;;;;;19.17;15.35;;;;;;;18.09;100.00;100509.03;5111162;28;20048;-59
2022/08/16 04:37:35;;;;;;;19.45;15.38;;;;;;;18.13;100.00;100513.03;5111141;28;20064;-49
2022/08/16 04:40:10;;;;;;;17.80;14.85;;;;;;;18.14;100.00;100514.72;5112260;28;20081;-52
2022/08/16 04:42:52;;;;;;;22.48;15.32;;;;;;;18.14;100.00;100520.03;5111991;28;20056;-58
2022/08/16 04:45:23;;;;;;;18.02;14.73;;;;;;;18.17;100.00;100522.38;5112290;28;20052;-59
2022/08/16 04:48:04;;;;;;;20.73;16.20;;;;;;;18.27;100.00;100524.94;5115014;28;20066;-51
2022/08/16 04:50:33;;;;;;;17.70;14.82;;;;;;;18.23;100.00;100535.06;5116097;27;20425;-49
2022/08/16 04:53:02;;;;;;;18.15;14.77;;;;;;;18.27;100.00;100534.75;5114512;28;20047;-49
2022/08/16 04:55:32;;;;;;;19.85;15.45;;;;;;;18.19;100.00;100536.38;5115806;28;20039;-50
2022/08/16 04:58:06;;;;;;;21.02;15.38;;;;;;;18.26;100.00;100533.91;5115776;28;20092;-59
2022/08/16 05:00:56;;;;;;;21.10;15.15;;;;;;;18.26;100.00;100533.91;5115592;28;20051;-51
2022/08/16 05:03:24;;;;;;;21.05;15.77;;;;;;;18.23;100.00;100532.41;5115063;27;20130;-51
2022/08/16 05:05:53;;;;;;;21.58;16.92;;;;;;;18.28;100.00;100534.59;5115015;28;20036;-50
2022/08/16 05:08:30;;;;;;;20.52;17.50;;;;;;;18.24;100.00;100544.72;5114698;28;20406;-59
2022/08/16 05:11:01;;;;;;;23.25;18.00;;;;;;;18.29;100.00;100549.56;5114842;28;20499;-59
2022/08/16 05:13:34;;;;;;;20.23;16.90;;;;;;;18.28;100.00;100542.56;5114848;28;20051;-51
2022/08/16 05:16:12;;;;;;;22.80;17.35;;;;;;;18.32;100.00;100543.91;5115124;28;20441;-52
2022/08/16 05:18:49;;;;;;;22.80;17.92;;;;;;;18.37;100.00;100533.63;5115140;28;20125;-53
2022/08/16 05:21:17;;;;;;;22.70;18.63;;;;;;;18.34;100.00;100541.94;5115110;27;20402;-55
2022/08/16 05:23:49;;;;;;;24.30;19.17;;;;;;;18.37;100.00;100544.28;5115152;28;20493;-59
2022/08/16 05:26:24;;;;;;;23.55;19.83;;;;;;;18.47;100.00;100548.66;5115101;28;20047;-58
2022/08/16 05:28:55;;;;;;;21.00;18.52;;;;;;;18.41;100.00;100548.31;5115298;28;20067;-49
2022/08/16 05:31:26;;;;;;;24.92;20.42;;;;;;;18.40;100.00;100541.31;5114923;28;20052;-53
2022/08/16 05:33:58;;;;;;;25.25;20.55;;;;;;;18.50;100.00;100553.66;5115030;28;20052;-57
2022/08/16 05:36:27;;;;;;;25.77;21.65;;;;;;;18.52;100.00;100554.34;5114878;28;20043;-53
2022/08/16 05:39:05;;;;;;;23.77;19.88;;;;;;;18.52;100.00;100554.34;5115224;28;20050;-59
2022/08/16 05:41:35;;;;;;;23.88;20.25;;;;;;;18.59;100.00;100558.88;5114858;28;20481;-58
2022/08/16 05:44:13;;;;;;;24.27;20.45;;;;;;;18.68;100.00;100546.44;5114292;28;20059;-58
2022/08/16 05:46:57;;;;;;;27.98;21.77;;;;;;;18.70;100.00;100541.78;5114847;28;20100;-52
2022/08/16 05:49:30;;;;;;;25.25;21.20;;;;;;;18.77;100.00;100543.81;5114624;28;20084;-59
2022/08/16 05:52:07;;;;;;;23.98;20.67;;;;;;;18.81;100.00;100545.97;5114680;28;20054;-54
2022/08/16 05:54:44;;;;;;;26.77;22.23;;;;;;;18.89;100.00;100542.53;5114499;28;20447;-53
2022/08/16 05:57:28;;;;;;;25.88;21.20;;;;;;;18.96;100.00;100546.22;5114306;28;20090;-59
2022/08/16 06:00:06;;;;;;;26.55;22.27;;;;;;;19.03;100.00;100552.59;5114488;28;20040;-50
2022/08/16 06:02:38;;;;;;;27.83;22.45;;;;;;;19.07;100.00;100548.59;5114479;28;20047;-59
2022/08/16 06:05:07;;;;;;;26.90;22.80;;;;;;;19.16;100.00;100545.97;5114408;28;20067;-52
2022/08/16 06:07:38;;;;;;;28.38;22.55;;;;;;;19.25;100.00;100547.63;5114278;28;20048;-61
2022/08/16 06:10:07;;;;;;;25.15;21.75;;;;;;;19.37;100.00;100545.47;5114171;28;20089;-60
2022/08/16 06:12:37;;;;;;;26.83;22.55;;;;;;;19.44;100.00;100554.47;5114382;28;20055;-58
2022/08/16 06:15:07;;;;;;;26.20;22.15;;;;;;;19.55;100.00;100561.31;5113147;28;20092;-57
2022/08/16 06:17:38;;;;;;;22.90;20.10;;;;;;;19.64;100.00;100565.66;5114698;28;20505;-59
2022/08/16 06:20:14;;;;;;;25.27;21.17;;;;;;;19.76;100.00;100555.50;5114433;28;20047;-59
2022/08/16 06:22:54;;;;;;;26.73;21.77;;;;;;;19.88;100.00;100561.38;5114062;28;20047;-56
2022/08/16 06:25:30;;;;;;;28.95;21.45;;;;;;;20.01;100.00;100569.69;5114020;28;20066;-58
2022/08/16 06:28:07;;;;;;;29.88;22.02;;;;;;;20.12;100.00;100573.84;5114275;28;20132;-55
2022/08/16 06:30:38;;;;;;;23.48;20.27;;;;;;;20.22;100.00;100563.81;5114180;28;20059;-57
2022/08/16 06:33:13;;;;;;;24.48;21.77;;;;;;;20.33;100.00;100569.78;5113873;28;20482;-59
2022/08/16 06:35:46;;;;;;;23.73;19.75;;;;;;;20.46;100.00;100577.28;5112479;28;20105;-54
2022/08/16 06:38:15;;;;;;;29.55;21.02;;;;;;;20.58;100.00;100567.91;5113712;28;20096;-58
2022/08/16 06:41:03;;;;;;;29.30;21.77;;;;;;;20.68;100.00;100568.56;5114109;28;20050;-59
2022/08/16 06:43:34;;;;;;;28.35;20.90;;;;;;;20.83;100.00;100565.97;5113639;28;20051;-59
2022/08/16 06:46:06;;;;;;;24.98;21.35;;;;;;;20.96;100.00;100575.31;5113893;28;20464;-61
2022/08/16 06:48:41;;;;;;;24.73;20.77;;;;;;;21.08;100.00;100571.22;5113912;28;20046;-53
2022/08/16 06:51:11;;;;;;;24.77;19.90;;;;;;;21.21;99.36;100573.31;5113660;28;20075;-60
2022/08/16 06:53:41;;;;;;;21.75;19.38;;;;;;;21.36;97.65;100568.84;5113377;28;20039;-60
2022/08/16 06:56:09;;;;;;;19.38;16.52;;;;;;;21.50;95.96;100566.44;5113762;28;20127;-54
2022/08/16 06:58:51;;;;;;;21.45;16.63;;;;;;;21.69;93.30;100570.50;5112460;28;20097;-55
2022/08/16 07:01:19;;;;;;;19.73;15.77;;;;;;;21.86;92.67;100573.88;5113405;28;20039;-52
2022/08/16 07:04:09;;;;;;;20.20;15.77;;;;;;;22.00;89.58;100570.41;5113489;28;20054;-59
2022/08/16 07:06:41;;;;;;;17.42;15.02;;;;;;;22.18;89.28;100572.72;5113635;28;20059;-54
2022/08/16 07:09:11;;;;;;;17.52;15.63;;;;;;;22.32;87.46;100575.59;5113165;28;20046;-61
2022/08/16 07:11:43;;;;;;;18.13;15.05;;;;;;;22.50;86.86;100583.34;5113115;28;20063;-53
2022/08/16 07:14:18;;;;;;;16.38;13.60;;;;;;;22.66;85.93;100576.94;5112968;28;20059;-53
2022/08/16 07:16:57;;;;;;;17.20;14.40;;;;;;;22.79;83.90;100583.28;5113109;28;20108;-55
2022/08/16 07:19:31;;;;;;;18.30;14.52;;;;;;;22.95;82.77;100589.47;5112785;28;20044;-61
2022/08/16 07:22:19;;;;;;;15.93;13.57;;;;;;;23.17;81.33;100589.56;5113236;28;20047;-55
2022/08/16 07:25:10;;;;;;;15.82;14.00;;;;;;;23.30;79.02;100587.00;5112823;28;20039;-55
2022/08/16 07:27:39;;;;;;;16.98;13.35;;;;;;;23.45;78.88;100592.31;5111933;28;20059;-60
2022/08/16 07:30:13;;;;;;;14.55;11.65;;;;;;;23.60;78.09;100589.56;5112913;28;20046;-56
2022/08/16 07:33:02;;;;;;;15.88;11.57;;;;;;;23.78;76.67;100589.97;5112858;28;20502;-50
2022/08/16 07:35:32;;;;;;;15.05;12.00;;;;;;;23.96;75.25;100600.25;5111456;28;20066;-60
2022/08/16 07:38:01;;;;;;;16.30;12.20;;;;;;;24.10;73.52;100601.19;5113033;28;20498;-56
2022/08/16 07:40:30;;;;;;;15.23;11.80;;;;;;;24.28;73.90;100602.53;5112481;28;20039;-61
2022/08/16 07:43:18;;;;;;;17.27;11.82;;;;;;;24.50;72.77;100599.78;5112567;28;20064;-60
2022/08/16 07:45:47;;;;;;;14.57;11.40;;;;;;;24.69;71.63;100611.72;5112655;28;20517;-53
2022/08/16 07:48:20;;;;;;;;;;;;;;;24.76;69.70;100613.41;5113282;28;20054;-61
2022/08/16 07:50:50;;;;;;;17.88;11.98;;;;;;;24.93;70.21;100610.38;5112414;28;20409;-55
2022/08/16 07:53:26;;;;;;;16.05;11.32;;;;;;;25.16;69.46;100609.25;5112408;28;20043;-61
2022/08/16 07:55:56;;;;;;;15.18;12.30;;;;;;;25.32;68.70;100606.19;5111543;28;20130;-61
2022/08/16 07:58:27;;;;;;;16.15;11.95;;;;;;;25.45;67.23;100611.59;5112477;28;20086;-55
2022/08/16 08:01:05;;;;;;;15.93;12.77;;;;;;;25.59;67.55;100606.25;5112695;28;20044;-61
2022/08/16 08:03:38;;;;;;;18.15;12.40;;;;;;;25.73;66.66;100613.31;5112466;28;20043;-63
2022/08/16 08:06:13;;;;;;;15.18;12.75;;;;;;;25.79;66.89;100608.97;5112568;28;20074;-63
2022/08/16 08:08:42;;;;;;;17.55;13.25;;;;;;;25.86;66.75;100628.63;5112415;28;20428;-64
2022/08/16 08:11:21;;;;;;;14.65;12.45;;;;;;;25.97;65.46;100628.03;5111184;28;20052;-65
2022/08/16 08:13:52;;;;;;;18.73;12.75;;;;;;;25.94;64.51;100625.75;5112112;28;20581;-65
2022/08/16 08:16:21;;;;;;;15.30;10.80;;;;;;;26.18;65.77;100626.19;5112262;28;20036;-58
2022/08/16 08:18:58;;;;;;;14.95;12.40;;;;;;;26.26;64.61;100622.44;5112798;28;20470;-58
2022/08/16 08:21:32;;;;;;;15.32;11.95;;;;;;;26.40;63.85;100634.06;5112619;28;20542;-58
2022/08/16 08:24:21;;;;;;;16.70;13.05;;;;;;;26.40;63.76;100631.34;5116046;28;20097;-58
2022/08/16 08:27:01;;;;;;;15.07;12.38;;;;;;;26.59;61.36;100627.78;5116140;28;20051;-65
2022/08/16 08:29:31;;;;;;;13.40;11.50;;;;;;;26.72;61.04;100635.03;5114905;28;20518;-65
2022/08/16 08:32:09;;;;;;;14.20;12.63;;;;;;;26.61;60.68;100643.75;5115905;27;20406;-65
2022/08/16 08:34:58;;;;;;;14.18;11.20;;;;;;;26.68;60.06;100644.56;5115757;28;20043;-57
2022/08/16 08:37:31;;;;;;;14.52;10.85;;;;;;;26.73;61.10;100639.38;5116113;28;20497;-58
2022/08/16 08:40:20;;;;;;;16.45;11.07;;;;;;;26.89;59.03;100646.19;5116148;28;20051;-62
2022/08/16 08:42:51;;;;;;;11.67;9.27;;;;;;;27.10;58.86;100645.06;5115889;28;20046;-65
2022/08/16 08:45:28;;;;;;;13.73;9.57;;;;;;;27.35;57.21;100638.09;5115760;28;20043;-57
2022/08/16 08:48:17;;;;;;;11.27;8.50;;;;;;;27.47;56.11;100636.38;5115861;28;20047;-65
2022/08/16 08:51:03;;;;;;;12.00;8.18;;;;;;;27.67;54.90;100639.78;5116171;28;20072;-58
2022/08/16 08:53:32;;;;;;;12.57;8.35;;;;;;;27.78;52.85;100632.84;5116051;28;20044;-58
2022/08/16 08:56:01;;;;;;;12.82;8.35;;;;;;;27.83;53.21;100633.03;5115550;28;20386;-57
2022/08/16 08:58:49;;;;;;;10.38;7.13;;;;;;;28.11;52.90;100631.78;5116005;28;20043;-58
2022/08/16 09:01:28;;;;;;;10.45;7.63;;;;;;;28.03;51.66;100628.53;5115581;28;20123;-59
2022/08/16 09:04:04;;;;;;;9.52;6.93;;;;;;;28.06;51.89;100639.75;5115351;28;20059;-55
2022/08/16 09:06:33;;;;;;;10.00;6.70;;;;;;;28.30;51.42;100642.66;5115512;28;20063;-56
2022/08/16 09:09:03;;;;;;;9.88;6.20;;;;;;;28.10;51.95;100646.38;5115640;28;20071;-57
2022/08/16 09:11:32;;;;;;;10.90;6.40;;;;;;;28.22;50.19;100645.63;5115434;28;20067;-58
2022/08/16 09:14:08;;;;;;;8.68;6.13;;;;;;;28.20;50.52;100640.44;5115757;28;20443;-64
2022/08/16 09:16:52;;;;;;;10.00;5.25;;;;;;;28.45;50.48;100645.00;5115341;28;20171;-57
2022/08/16 09:19:30;;;;;;;11.05;6.03;;;;;;;28.69;49.40;100647.88;5115251;28;20124;-57
2022/08/16 09:22:02;;;;;;;10.68;5.32;;;;;;;28.87;50.63;100647.09;5115075;28;20043;-64
2022/08/16 09:24:33;;;;;;;10.65;5.20;;;;;;;28.91;48.16;100648.28;5115073;28;20506;-58
2022/08/16 09:27:21;;;;;;;8.75;5.57;;;;;;;29.26;48.03;100644.94;5115115;28;20056;-64
2022/08/16 09:29:52;;;;;;;9.95;5.28;;;;;;;29.36;48.01;100644.41;5113796;28;20063;-63
2022/08/16 09:32:27;;;;;;;9.52;4.75;;;;;;;29.63;47.68;100642.13;5114139;28;20498;-58
2022/08/16 09:34:58;;;;;;;9.73;6.07;;;;;;;29.43;47.54;100645.13;5113653;28;20078;-58
2022/08/16 09:37:29;;;;;;;10.88;5.95;;;;;;;29.78;48.68;100647.13;5114720;28;20046;-64
2022/08/16 09:40:08;;;;;;;11.27;5.60;;;;;;;30.01;47.45;100628.19;5113509;28;20519;-57
2022/08/16 09:42:57;;;;;;;7.43;4.65;;;;;;;30.29;47.36;100639.41;5114663;27;20105;-56
2022/08/16 09:45:28;;;;;;;9.18;5.00;;;;;;;30.40;45.20;100633.13;5114710;28;20070;-62
2022/08/16 09:47:58;;;;;;;10.63;5.50;;;;;;;30.74;44.37;100638.78;5114671;28;20134;-63
2022/08/16 09:50:30;;;;;;;11.98;5.88;;;;;;;30.75;45.86;100640.44;5114554;28;20041;-57
2022/08/16 09:53:09;;;;;;;8.70;5.20;;;;;;;30.57;44.55;100635.16;5114482;28;20402;-57
2022/08/16 09:55:47;;;;;;;7.13;4.60;;;;;;;30.83;44.19;100641.97;5114380;28;20568;-57
2022/08/16 09:58:17;;;;;;;8.10;5.10;;;;;;;30.92;44.17;100645.94;5114806;28;20144;-57
2022/08/16 10:01:05;;;;;;;9.73;5.88;;;;;;;31.21;43.13;100645.16;5114506;28;20409;-64
2022/08/16 10:03:38;;;;;;;8.98;5.35;;;;;;;31.49;43.78;100647.06;5114329;28;20109;-64
2022/08/16 10:06:27;;;;;;;8.35;5.60;;;;;;;31.31;44.68;100650.81;5114295;28;20044;-64
2022/08/16 10:09:01;;;;;;;10.00;5.10;;;;;;;31.65;44.15;100642.75;5113123;28;20057;-57
2022/08/16 10:14:21;;;;;;;9.25;6.10;;;;;;;31.48;42.71;100645.41;5114202;28;19950;-64
2022/08/16 10:17:02;;;;;;;13.55;5.70;;;;;;;31.66;42.31;100645.22;5114027;28;20384;-62
2022/08/16 10:19:31;;;;;;;10.18;5.38;;;;;;;31.87;42.83;100645.56;5113699;28;20444;-57
2022/08/16 10:22:00;;;;;;;9.65;5.25;;;;;;;31.92;42.95;100653.78;5113740;28;20475;-63
2022/08/16 10:24:32;;;;;;;;;;;;;;;32.12;41.41;100642.44;5114082;28;20051;-63
2022/08/16 10:27:02;;;;;;;8.13;4.88;;;;;;;32.22;42.17;100644.50;5113995;28;19920;-63
2022/08/16 10:29:50;;;;;;;9.50;5.53;;;;;;;31.82;40.30;100648.19;5112659;28;20104;-57
2022/08/16 10:32:34;;;;;;;9.82;5.30;;;;;;;32.39;41.30;100644.47;5113936;28;20662;-57
2022/08/16 10:35:07;;;;;;;10.25;5.07;;;;;;;32.71;39.77;100652.00;5113812;28;20052;-57
2022/08/16 10:37:35;;;;;;;10.40;5.30;;;;;;;33.18;38.43;100651.44;5113825;28;20078;-57
2022/08/16 10:40:06;;;;;;;10.38;4.53;;;;;;;33.36;38.52;100652.22;5113577;28;20066;-58
2022/08/16 10:42:55;;;;;;;8.10;4.65;;;;;;;33.26;37.12;100671.19;5113597;28;20054;-63
2022/08/16 10:45:24;;;;;;;10.75;5.00;;;;;;;33.23;37.28;100666.19;5112990;28;20063;-57
2022/08/16 10:47:55;;;;;;;6.95;4.80;;;;;;;33.23;36.21;100658.03;5113523;28;20056;-58
2022/08/16 10:50:32;;;;;;;9.45;5.00;;;;;;;33.43;37.08;100666.47;5113440;28;20044;-63
2022/08/16 10:53:05;;;;;;;8.25;5.53;;;;;;;33.17;36.26;100657.16;5113604;28;20043;-62
2022/08/16 10:55:36;;;;;;;9.10;5.32;;;;;;;33.07;36.44;100666.03;5113280;28;20123;-62
2022/08/16 10:58:15;;;;;;;8.95;4.57;;;;;;;33.19;36.51;100663.19;5113605;28;20047;-62
2022/08/16 11:00:45;;;;;;;8.23;4.72;;;;;;;33.60;35.48;100665.53;5113356;28;20043;-57
2022/08/16 11:03:14;;;;;;;7.07;4.30;;;;;;;33.81;36.31;100661.91;5113330;28;20093;-57
2022/08/16 11:06:03;;;;;;;9.57;5.10;;;;;;;33.76;35.60;100661.03;5112947;28;20059;-58
2022/08/16 11:08:33;;;;;;;8.55;4.78;;;;;;;34.07;34.90;100669.47;5113068;28;20074;-63
2022/08/16 11:11:04;;;;;;;8.38;4.85;;;;;;;34.27;35.01;100661.44;5112878;28;20104;-57
2022/08/16 11:13:48;;;;;;;9.48;4.75;;;;;;;33.69;33.85;100672.97;5113254;28;20047;-63
2022/08/16 11:16:27;;;;;;;6.78;4.25;;;;;;;33.99;33.71;100668.91;5112766;28;20146;-57
2022/08/16 11:19:15;;;;;;;9.35;5.18;;;;;;;34.00;33.96;100666.97;5113184;28;20040;-62
2022/08/16 11:21:45;;;;;;;7.85;4.38;;;;;;;34.22;34.47;100668.78;5113084;28;20126;-63
2022/08/16 11:24:38;;;;;;;7.07;4.10;;;;;;;34.54;34.75;100666.81;5112950;28;20479;-63
2022/08/16 11:27:15;;;;;;;7.18;4.60;;;;;;;34.46;34.03;100674.69;5113023;28;20051;-63
2022/08/16 11:29:51;;;;;;;8.30;4.85;;;;;;;34.29;33.01;100670.19;5112878;28;20043;-64
2022/08/16 11:32:20;;;;;;;8.05;4.43;;;;;;;34.25;33.59;100671.81;5112957;28;20127;-58
2022/08/16 11:34:57;;;;;;;7.72;4.50;;;;;;;34.34;34.42;100672.16;5113159;28;20032;-58
2022/08/16 11:37:45;;;;;;;7.30;4.85;;;;;;;34.63;33.93;100675.34;5112876;28;20043;-57
2022/08/16 11:40:37;;;;;;;10.43;4.65;;;;;;;34.94;34.02;100674.66;5112828;28;20039;-64
2022/08/16 11:43:06;;;;;;;8.85;5.50;;;;;;;34.93;32.88;100678.47;5112412;28;20043;-65
2022/08/16 11:45:38;;;;;;;8.95;4.60;;;;;;;35.42;33.07;100685.47;5112867;28;20506;-60
2022/08/16 11:48:09;;;;;;;;;;;;;;;35.79;33.02;100690.72;5113343;28;20044;-59
2022/08/16 11:50:37;;;;;;;6.82;4.20;;;;;;;35.51;31.80;100695.59;5112755;28;19959;-58